PWSweather.com
Personal Weather Stations
Station Observations
ANTHEMNP
Anthem North Parkside, Anthem, AZ 85086

Anthem North ParksideAnthem, AZ 85086

Lat: 33.876464, Lon: -112.13861199999997

Elevation: 1930

Station Type: Davis Vantage Vue with Pro 2 console

http://www.azjerry.com/ANPW/wxindex.php

High Low Average
Temperature 86.3°F30.2°C 62.5°F16.9°C 72.0°F22.2°C
Dew Point 48.2°F9.0°C 39.2°F4.0°C 42.6°F5.9°C
Winds 12.7 mph 20.4 kmh Calm Calm 7.0 mph E11.3 kmh E
Wind Gusts 21.9 mph35.2 kmh -- 10.0 mph16.1 kmh
Humidity 48% 20% 36%
Pressure 30.13 in1020.3 mb 30.00 in1015.9 mb -
Precipitation 0.00 in0.0 mm - -
Hour Temp Dew Point Humidity Winds Wind Gusts Pressure Precip Precip Rate Daily Precip Total
12:00 AM 65.7°F18.7°C 44.9°F7.2°C 47% 10.4 mph NNE16.7 kmh NNE 15.0 mph24.1 kmh 30.09 in1019.0 mb - 0.00 in0.0 mm 0.00 in0.0 mm
12:10 AM 65.4°F18.6°C 44.7°F7.1°C 47% 6.9 mph N11.1 kmh N 8.1 mph13.0 kmh 30.09 in1019.0 mb - 0.00 in0.0 mm 0.00 in0.0 mm
12:15 AM 65.5°F18.6°C 44.7°F7.1°C 47% 8.1 mph NNE13.0 kmh NNE 10.4 mph16.7 kmh 30.09 in1019.0 mb - 0.00 in0.0 mm 0.00 in0.0 mm
12:20 AM 65.3°F18.5°C 45.1°F7.3°C 48% 8.1 mph N13.0 kmh N 13.8 mph22.2 kmh 30.09 in1019.0 mb - 0.00 in0.0 mm 0.00 in0.0 mm
12:25 AM 65.1°F18.4°C 44.9°F7.2°C 48% 10.4 mph NNE16.7 kmh NNE 13.8 mph22.2 kmh 30.10 in1019.3 mb - 0.00 in0.0 mm 0.00 in0.0 mm
12:30 AM 65.3°F18.5°C 44.5°F6.9°C 47% 9.2 mph NNE14.8 kmh NNE 11.5 mph18.5 kmh 30.09 in1019.0 mb - 0.00 in0.0 mm 0.00 in0.0 mm
12:35 AM 65.3°F18.5°C 44.6°F7.0°C 47% 8.1 mph N13.0 kmh N 15.0 mph24.1 kmh 30.10 in1019.3 mb - 0.00 in0.0 mm 0.00 in0.0 mm
12:40 AM 65.3°F18.5°C 44.0°F6.7°C 46% 9.2 mph N14.8 kmh N 12.7 mph20.4 kmh 30.10 in1019.3 mb - 0.00 in0.0 mm 0.00 in0.0 mm
12:45 AM 65.1°F18.4°C 44.4°F6.9°C 47% 8.1 mph N13.0 kmh N 15.0 mph24.1 kmh 30.10 in1019.3 mb - 0.00 in0.0 mm 0.00 in0.0 mm
12:50 AM 64.9°F18.3°C 44.2°F6.8°C 47% 8.1 mph N13.0 kmh N 10.4 mph16.7 kmh 30.10 in1019.3 mb - 0.00 in0.0 mm 0.00 in0.0 mm
12:55 AM 64.7°F18.2°C 44.0°F6.7°C 47% 9.2 mph NNE14.8 kmh NNE 13.8 mph22.2 kmh 30.10 in1019.3 mb - 0.00 in0.0 mm 0.00 in0.0 mm
01:00 AM 64.6°F18.1°C 43.9°F6.6°C 47% 8.1 mph N13.0 kmh N 11.5 mph18.5 kmh 30.10 in1019.3 mb - 0.00 in0.0 mm 0.00 in0.0 mm
01:10 AM 64.5°F18.1°C 43.8°F6.6°C 47% 10.4 mph NNE16.7 kmh NNE 15.0 mph24.1 kmh 30.10 in1019.3 mb - 0.00 in0.0 mm 0.00 in0.0 mm
01:15 AM 64.4°F18.0°C 43.7°F6.5°C 47% 9.2 mph NE14.8 kmh NE 9.2 mph14.8 kmh 30.10 in1019.3 mb - 0.00 in0.0 mm 0.00 in0.0 mm
01:20 AM 64.4°F18.0°C 43.7°F6.5°C 47% 10.4 mph NNW16.7 kmh NNW 12.7 mph20.4 kmh 30.10 in1019.3 mb - 0.00 in0.0 mm 0.00 in0.0 mm
01:25 AM 64.4°F18.0°C 43.7°F6.5°C 47% 9.2 mph NNE14.8 kmh NNE 11.5 mph18.5 kmh 30.10 in1019.3 mb - 0.00 in0.0 mm 0.00 in0.0 mm
01:30 AM 64.2°F17.9°C 43.5°F6.4°C 47% 9.2 mph N14.8 kmh N 12.7 mph20.4 kmh 30.10 in1019.3 mb - 0.00 in0.0 mm 0.00 in0.0 mm
01:35 AM 64.1°F17.8°C 43.4°F6.3°C 47% 9.2 mph NNE14.8 kmh NNE 13.8 mph22.2 kmh 30.10 in1019.3 mb - 0.00 in0.0 mm 0.00 in0.0 mm
01:40 AM 64.1°F17.8°C 42.9°F6.1°C 46% 10.4 mph N16.7 kmh N 17.3 mph27.8 kmh 30.09 in1019.0 mb - 0.00 in0.0 mm 0.00 in0.0 mm
01:45 AM 64.0°F17.8°C 42.8°F6.0°C 46% 10.4 mph NNE16.7 kmh NNE 17.3 mph27.8 kmh 30.09 in1019.0 mb - 0.00 in0.0 mm 0.00 in0.0 mm
01:50 AM 63.9°F17.7°C 42.7°F5.9°C 46% 10.4 mph NNE16.7 kmh NNE 16.1 mph25.9 kmh 30.09 in1019.0 mb - 0.00 in0.0 mm 0.00 in0.0 mm
01:55 AM 63.9°F17.7°C 42.7°F5.9°C 46% 9.2 mph NNE14.8 kmh NNE 15.0 mph24.1 kmh 30.09 in1019.0 mb - 0.00 in0.0 mm 0.00 in0.0 mm
02:00 AM 63.9°F17.7°C 42.7°F5.9°C 46% 10.4 mph NNE16.7 kmh NNE 15.0 mph24.1 kmh 30.09 in1019.0 mb - 0.00 in0.0 mm 0.00 in0.0 mm
02:10 AM 64.1°F17.8°C 42.3°F5.7°C 45% 10.4 mph N16.7 kmh N 19.6 mph31.5 kmh 30.09 in1019.0 mb - 0.00 in0.0 mm 0.00 in0.0 mm
02:15 AM 64.2°F17.9°C 42.4°F5.8°C 45% 11.5 mph NE18.5 kmh NE 19.6 mph31.5 kmh 30.09 in1019.0 mb - 0.00 in0.0 mm 0.00 in0.0 mm
02:20 AM 64.4°F18.0°C 42.6°F5.9°C 45% 11.5 mph NNE18.5 kmh NNE 15.0 mph24.1 kmh 30.09 in1019.0 mb - 0.00 in0.0 mm 0.00 in0.0 mm
02:25 AM 64.3°F17.9°C 42.5°F5.8°C 45% 11.5 mph N18.5 kmh N 17.3 mph27.8 kmh 30.09 in1019.0 mb - 0.00 in0.0 mm 0.00 in0.0 mm
02:30 AM 64.2°F17.9°C 42.4°F5.8°C 45% 10.4 mph N16.7 kmh N 17.3 mph27.8 kmh 30.09 in1019.0 mb - 0.00 in0.0 mm 0.00 in0.0 mm
02:35 AM 64.2°F17.9°C 41.8°F5.4°C 44% 11.5 mph N18.5 kmh N 17.3 mph27.8 kmh 30.09 in1019.0 mb - 0.00 in0.0 mm 0.00 in0.0 mm
02:40 AM 64.2°F17.9°C 41.8°F5.4°C 44% 12.7 mph NNE20.4 kmh NNE 19.6 mph31.5 kmh 30.09 in1019.0 mb - 0.00 in0.0 mm 0.00 in0.0 mm
02:50 AM 64.2°F17.9°C 41.9°F5.5°C 44% 11.5 mph 18.5 kmh 16.1 mph25.9 kmh 30.09 in1019.0 mb - 0.00 in0.0 mm 0.00 in0.0 mm
02:55 AM 64.2°F17.9°C 41.8°F5.4°C 44% 11.5 mph N18.5 kmh N 16.1 mph25.9 kmh 30.09 in1019.0 mb - 0.00 in0.0 mm 0.00 in0.0 mm
03:00 AM 64.1°F17.8°C 41.7°F5.4°C 44% 11.5 mph NNE18.5 kmh NNE 13.8 mph22.2 kmh 30.09 in1019.0 mb - 0.00 in0.0 mm 0.00 in0.0 mm
03:10 AM 64.2°F17.9°C 41.8°F5.4°C 44% 11.5 mph NNE18.5 kmh NNE 17.3 mph27.8 kmh 30.09 in1019.0 mb - 0.00 in0.0 mm 0.00 in0.0 mm
03:15 AM 64.1°F17.8°C 41.7°F5.4°C 44% 11.5 mph NNE18.5 kmh NNE 17.3 mph27.8 kmh 30.08 in1018.6 mb - 0.00 in0.0 mm 0.00 in0.0 mm
03:20 AM 64.3°F17.9°C 41.9°F5.5°C 44% 12.7 mph NNE20.4 kmh NNE 17.3 mph27.8 kmh 30.08 in1018.6 mb - 0.00 in0.0 mm 0.00 in0.0 mm
03:25 AM 64.3°F17.9°C 41.9°F5.5°C 44% 12.7 mph NNE20.4 kmh NNE 18.4 mph29.6 kmh 30.08 in1018.6 mb - 0.00 in0.0 mm 0.00 in0.0 mm
03:30 AM 64.2°F17.9°C 41.8°F5.4°C 44% 10.4 mph NNE16.7 kmh NNE 13.8 mph22.2 kmh 30.08 in1018.6 mb - 0.00 in0.0 mm 0.00 in0.0 mm
03:35 AM 64.3°F17.9°C 41.3°F5.2°C 43% 11.5 mph NNE18.5 kmh NNE 15.0 mph24.1 kmh 30.08 in1018.6 mb - 0.00 in0.0 mm 0.00 in0.0 mm
03:40 AM 64.2°F17.9°C 41.8°F5.4°C 44% 10.4 mph NNE16.7 kmh NNE 15.0 mph24.1 kmh 30.08 in1018.6 mb - 0.00 in0.0 mm 0.00 in0.0 mm
03:45 AM 64.1°F17.8°C 41.7°F5.4°C 44% 10.4 mph N16.7 kmh N 12.7 mph20.4 kmh 30.09 in1019.0 mb - 0.00 in0.0 mm 0.00 in0.0 mm
03:50 AM 64.1°F17.8°C 41.7°F5.4°C 44% 11.5 mph NNE18.5 kmh NNE 19.6 mph31.5 kmh 30.08 in1018.6 mb - 0.00 in0.0 mm 0.00 in0.0 mm
03:55 AM 64.0°F17.8°C 41.6°F5.3°C 44% 9.2 mph NE14.8 kmh NE 17.3 mph27.8 kmh 30.08 in1018.6 mb - 0.00 in0.0 mm 0.00 in0.0 mm
04:00 AM 64.0°F17.8°C 41.6°F5.3°C 44% 8.1 mph N13.0 kmh N 11.5 mph18.5 kmh 30.08 in1018.6 mb - 0.00 in0.0 mm 0.00 in0.0 mm
04:10 AM 63.9°F17.7°C 41.5°F5.3°C 44% 10.4 mph NNE16.7 kmh NNE 17.3 mph27.8 kmh 30.08 in1018.6 mb - 0.00 in0.0 mm 0.00 in0.0 mm
04:15 AM 63.8°F17.7°C 41.5°F5.3°C 44% 11.5 mph N18.5 kmh N 16.1 mph25.9 kmh 30.09 in1019.0 mb - 0.00 in0.0 mm 0.00 in0.0 mm
04:20 AM 63.7°F17.6°C 41.4°F5.2°C 44% 12.7 mph N20.4 kmh N 20.7 mph33.3 kmh 30.09 in1019.0 mb - 0.00 in0.0 mm 0.00 in0.0 mm
04:25 AM 63.8°F17.7°C 41.5°F5.3°C 44% 11.5 mph NNE18.5 kmh NNE 18.4 mph29.6 kmh 30.09 in1019.0 mb - 0.00 in0.0 mm 0.00 in0.0 mm
04:30 AM 63.8°F17.7°C 42.0°F5.6°C 45% 12.7 mph N20.4 kmh N 13.8 mph22.2 kmh 30.09 in1019.0 mb - 0.00 in0.0 mm 0.00 in0.0 mm
04:35 AM 63.5°F17.5°C 41.8°F5.4°C 45% 9.2 mph NNE14.8 kmh NNE 11.5 mph18.5 kmh 30.09 in1019.0 mb - 0.00 in0.0 mm 0.00 in0.0 mm
04:40 AM 63.4°F17.4°C 41.7°F5.4°C 45% 10.4 mph N16.7 kmh N 13.8 mph22.2 kmh 30.09 in1019.0 mb - 0.00 in0.0 mm 0.00 in0.0 mm
04:45 AM 63.5°F17.5°C 41.7°F5.4°C 45% 11.5 mph NNE18.5 kmh NNE 19.6 mph31.5 kmh 30.09 in1019.0 mb - 0.00 in0.0 mm 0.00 in0.0 mm
04:50 AM 63.4°F17.4°C 41.7°F5.4°C 45% 10.4 mph N16.7 kmh N 17.3 mph27.8 kmh 30.09 in1019.0 mb - 0.00 in0.0 mm 0.00 in0.0 mm
04:55 AM 63.3°F17.4°C 41.6°F5.3°C 45% 10.4 mph NE16.7 kmh NE 11.5 mph18.5 kmh 30.09 in1019.0 mb - 0.00 in0.0 mm 0.00 in0.0 mm
05:00 AM 63.3°F17.4°C 41.6°F5.3°C 45% 12.7 mph N20.4 kmh N 12.7 mph20.4 kmh 30.10 in1019.3 mb - 0.00 in0.0 mm 0.00 in0.0 mm
05:10 AM 63.2°F17.3°C 41.5°F5.3°C 45% 10.4 mph N16.7 kmh N 11.5 mph18.5 kmh 30.10 in1019.3 mb - 0.00 in0.0 mm 0.00 in0.0 mm
05:15 AM 63.3°F17.4°C 41.6°F5.3°C 45% 10.4 mph NNE16.7 kmh NNE 12.7 mph20.4 kmh 30.10 in1019.3 mb - 0.00 in0.0 mm 0.00 in0.0 mm
05:20 AM 63.1°F17.3°C 41.4°F5.2°C 45% 10.4 mph N16.7 kmh N 15.0 mph24.1 kmh 30.10 in1019.3 mb - 0.00 in0.0 mm 0.00 in0.0 mm
05:25 AM 63.1°F17.3°C 42.0°F5.6°C 46% 9.2 mph NNE14.8 kmh NNE 15.0 mph24.1 kmh 30.10 in1019.3 mb - 0.00 in0.0 mm 0.00 in0.0 mm
05:30 AM 63.1°F17.3°C 42.0°F5.6°C 46% 9.2 mph NNW14.8 kmh NNW 8.1 mph13.0 kmh 30.10 in1019.3 mb - 0.00 in0.0 mm 0.00 in0.0 mm
05:35 AM 63.1°F17.3°C 41.4°F5.2°C 45% 10.4 mph N16.7 kmh N 13.8 mph22.2 kmh 30.10 in1019.3 mb - 0.00 in0.0 mm 0.00 in0.0 mm
05:40 AM 63.0°F17.2°C 41.9°F5.5°C 46% 9.2 mph N14.8 kmh N 17.3 mph27.8 kmh 30.10 in1019.3 mb - 0.00 in0.0 mm 0.00 in0.0 mm
05:45 AM 62.9°F17.2°C 41.8°F5.4°C 46% 9.2 mph ENE14.8 kmh ENE 10.4 mph16.7 kmh 30.10 in1019.3 mb - 0.00 in0.0 mm 0.00 in0.0 mm
05:50 AM 62.8°F17.1°C 41.7°F5.4°C 46% 9.2 mph N14.8 kmh N 15.0 mph24.1 kmh 30.10 in1019.3 mb - 0.00 in0.0 mm 0.00 in0.0 mm
05:55 AM 62.7°F17.1°C 41.6°F5.3°C 46% 9.2 mph NE14.8 kmh NE 13.8 mph22.2 kmh 30.10 in1019.3 mb - 0.00 in0.0 mm 0.00 in0.0 mm
06:00 AM 62.7°F17.1°C 41.6°F5.3°C 46% 12.7 mph N20.4 kmh N 17.3 mph27.8 kmh 30.10 in1019.3 mb - 0.00 in0.0 mm 0.00 in0.0 mm
06:10 AM 62.6°F17.0°C 41.5°F5.3°C 46% 10.4 mph N16.7 kmh N 12.7 mph20.4 kmh 30.10 in1019.3 mb - 0.00 in0.0 mm 0.00 in0.0 mm
06:15 AM 62.6°F17.0°C 41.6°F5.3°C 46% 10.4 mph NNE16.7 kmh NNE 15.0 mph24.1 kmh 30.10 in1019.3 mb - 0.00 in0.0 mm 0.00 in0.0 mm
06:20 AM 62.6°F17.0°C 41.5°F5.3°C 46% 11.5 mph N18.5 kmh N 13.8 mph22.2 kmh 30.10 in1019.3 mb - 0.00 in0.0 mm 0.00 in0.0 mm
06:25 AM 62.6°F17.0°C 41.5°F5.3°C 46% 9.2 mph N14.8 kmh N 17.3 mph27.8 kmh 30.11 in1019.6 mb - 0.00 in0.0 mm 0.00 in0.0 mm
06:30 AM 62.6°F17.0°C 41.6°F5.3°C 46% 9.2 mph N14.8 kmh N 11.5 mph18.5 kmh 30.11 in1019.6 mb - 0.00 in0.0 mm 0.00 in0.0 mm
06:35 AM 62.5°F16.9°C 41.4°F5.2°C 46% 8.1 mph N13.0 kmh N 18.4 mph29.6 kmh 30.11 in1019.6 mb - 0.00 in0.0 mm 0.00 in0.0 mm
06:40 AM 62.5°F16.9°C 41.4°F5.2°C 46% 11.5 mph NNE18.5 kmh NNE 15.0 mph24.1 kmh 30.11 in1019.6 mb - 0.00 in0.0 mm 0.00 in0.0 mm
06:45 AM 62.6°F17.0°C 41.5°F5.3°C 46% 10.4 mph N16.7 kmh N 15.0 mph24.1 kmh 30.11 in1019.6 mb - 0.00 in0.0 mm 0.00 in0.0 mm
06:50 AM 62.5°F16.9°C 41.4°F5.2°C 46% 9.2 mph N14.8 kmh N 13.8 mph22.2 kmh 30.11 in1019.6 mb - 0.00 in0.0 mm 0.00 in0.0 mm
06:55 AM 62.6°F17.0°C 41.5°F5.3°C 46% 10.4 mph N16.7 kmh N 16.1 mph25.9 kmh 30.11 in1019.6 mb - 0.00 in0.0 mm 0.00 in0.0 mm
07:00 AM 62.6°F17.0°C 41.5°F5.3°C 46% 11.5 mph N18.5 kmh N 18.4 mph29.6 kmh 30.11 in1019.6 mb - 0.00 in0.0 mm 0.00 in0.0 mm
07:10 AM 62.7°F17.1°C 41.6°F5.3°C 46% 11.5 mph NNE18.5 kmh NNE 19.6 mph31.5 kmh 30.12 in1020.0 mb - 0.00 in0.0 mm 0.00 in0.0 mm
07:15 AM 62.7°F17.1°C 41.6°F5.3°C 46% 10.4 mph NNE16.7 kmh NNE 17.3 mph27.8 kmh 30.12 in1020.0 mb - 0.00 in0.0 mm 0.00 in0.0 mm
07:20 AM 62.7°F17.1°C 41.6°F5.3°C 46% 10.4 mph NNE16.7 kmh NNE 13.8 mph22.2 kmh 30.12 in1020.0 mb - 0.00 in0.0 mm 0.00 in0.0 mm
07:25 AM 62.8°F17.1°C 41.7°F5.4°C 46% 11.5 mph N18.5 kmh N 19.6 mph31.5 kmh 30.12 in1020.0 mb - 0.00 in0.0 mm 0.00 in0.0 mm
07:30 AM 62.9°F17.2°C 41.8°F5.4°C 46% 10.4 mph NNE16.7 kmh NNE 19.6 mph31.5 kmh 30.12 in1020.0 mb - 0.00 in0.0 mm 0.00 in0.0 mm
07:35 AM 63.1°F17.3°C 42.0°F5.6°C 46% 10.4 mph N16.7 kmh N 16.1 mph25.9 kmh 30.12 in1020.0 mb - 0.00 in0.0 mm 0.00 in0.0 mm
07:40 AM 63.2°F17.3°C 42.1°F5.6°C 46% 11.5 mph N18.5 kmh N 16.1 mph25.9 kmh 30.12 in1020.0 mb - 0.00 in0.0 mm 0.00 in0.0 mm
07:45 AM 63.4°F17.4°C 42.3°F5.7°C 46% 12.7 mph NNE20.4 kmh NNE 16.1 mph25.9 kmh 30.12 in1020.0 mb - 0.00 in0.0 mm 0.00 in0.0 mm
07:50 AM 63.6°F17.6°C 41.8°F5.4°C 45% 11.5 mph N18.5 kmh N 21.9 mph35.2 kmh 30.12 in1020.0 mb - 0.00 in0.0 mm 0.00 in0.0 mm
07:55 AM 63.8°F17.7°C 42.1°F5.6°C 45% 11.5 mph NNE18.5 kmh NNE 20.7 mph33.3 kmh 30.12 in1020.0 mb - 0.00 in0.0 mm 0.00 in0.0 mm
08:00 AM 64.1°F17.8°C 42.3°F5.7°C 45% 11.5 mph N18.5 kmh N 15.0 mph24.1 kmh 30.12 in1020.0 mb - 0.00 in0.0 mm 0.00 in0.0 mm
08:10 AM 65.0°F18.3°C 42.5°F5.8°C 44% 11.5 mph N18.5 kmh N 19.6 mph31.5 kmh 30.12 in1020.0 mb - 0.00 in0.0 mm 0.00 in0.0 mm
08:15 AM 65.3°F18.5°C 42.2°F5.7°C 43% 12.7 mph N20.4 kmh N 17.3 mph27.8 kmh 30.12 in1020.0 mb - 0.00 in0.0 mm 0.00 in0.0 mm
08:20 AM 65.6°F18.7°C 42.5°F5.8°C 43% 10.4 mph NNE16.7 kmh NNE 16.1 mph25.9 kmh 30.13 in1020.3 mb - 0.00 in0.0 mm 0.00 in0.0 mm
08:25 AM 65.9°F18.8°C 42.7°F5.9°C 43% 12.7 mph NNE20.4 kmh NNE 19.6 mph31.5 kmh 30.13 in1020.3 mb - 0.00 in0.0 mm 0.00 in0.0 mm
08:30 AM 66.2°F19.0°C 42.4°F5.8°C 42% 10.4 mph N16.7 kmh N 13.8 mph22.2 kmh 30.13 in1020.3 mb - 0.00 in0.0 mm 0.00 in0.0 mm
08:35 AM 66.6°F19.2°C 42.8°F6.0°C 42% 11.5 mph N18.5 kmh N 18.4 mph29.6 kmh 30.13 in1020.3 mb - 0.00 in0.0 mm 0.00 in0.0 mm
08:40 AM 66.9°F19.4°C 43.0°F6.1°C 42% 12.7 mph N20.4 kmh N 15.0 mph24.1 kmh 30.13 in1020.3 mb - 0.00 in0.0 mm 0.00 in0.0 mm
08:45 AM 67.2°F19.6°C 42.7°F5.9°C 41% 11.5 mph N18.5 kmh N 19.6 mph31.5 kmh 30.13 in1020.3 mb - 0.00 in0.0 mm 0.00 in0.0 mm
08:50 AM 67.4°F19.7°C 42.8°F6.0°C 41% 12.7 mph NNE20.4 kmh NNE 19.6 mph31.5 kmh 30.13 in1020.3 mb - 0.00 in0.0 mm 0.00 in0.0 mm
08:55 AM 67.4°F19.7°C 42.9°F6.1°C 41% 11.5 mph N18.5 kmh N 18.4 mph29.6 kmh 30.13 in1020.3 mb - 0.00 in0.0 mm 0.00 in0.0 mm
09:00 AM 67.7°F19.8°C 43.1°F6.2°C 41% 10.4 mph N16.7 kmh N 12.7 mph20.4 kmh 30.13 in1020.3 mb - 0.00 in0.0 mm 0.00 in0.0 mm
09:10 AM 68.1°F20.1°C 43.5°F6.4°C 41% 12.7 mph N20.4 kmh N 16.1 mph25.9 kmh 30.13 in1020.3 mb - 0.00 in0.0 mm 0.00 in0.0 mm
09:15 AM 68.5°F20.3°C 43.2°F6.2°C 40% 9.2 mph N14.8 kmh N 12.7 mph20.4 kmh 30.13 in1020.3 mb - 0.00 in0.0 mm 0.00 in0.0 mm
09:20 AM 68.8°F20.4°C 43.5°F6.4°C 40% 10.4 mph NNE16.7 kmh NNE 16.1 mph25.9 kmh 30.13 in1020.3 mb - 0.00 in0.0 mm 0.00 in0.0 mm
09:25 AM 69.1°F20.6°C 43.7°F6.5°C 40% 10.4 mph NNE16.7 kmh NNE 11.5 mph18.5 kmh 30.13 in1020.3 mb - 0.00 in0.0 mm 0.00 in0.0 mm
09:30 AM 69.5°F20.8°C 44.1°F6.7°C 40% 8.1 mph NNE13.0 kmh NNE 13.8 mph22.2 kmh 30.13 in1020.3 mb - 0.00 in0.0 mm 0.00 in0.0 mm
09:35 AM 69.7°F20.9°C 43.7°F6.5°C 39% 8.1 mph N13.0 kmh N 16.1 mph25.9 kmh 30.13 in1020.3 mb - 0.00 in0.0 mm 0.00 in0.0 mm
09:40 AM 70.2°F21.2°C 44.1°F6.7°C 39% 8.1 mph N13.0 kmh N 11.5 mph18.5 kmh 30.13 in1020.3 mb - 0.00 in0.0 mm 0.00 in0.0 mm
09:45 AM 70.6°F21.4°C 43.8°F6.6°C 38% 9.2 mph N14.8 kmh N 11.5 mph18.5 kmh 30.13 in1020.3 mb - 0.00 in0.0 mm 0.00 in0.0 mm
09:50 AM 71.0°F21.7°C 43.4°F6.3°C 37% 8.1 mph N13.0 kmh N 16.1 mph25.9 kmh 30.13 in1020.3 mb - 0.00 in0.0 mm 0.00 in0.0 mm
09:55 AM 71.0°F21.7°C 44.1°F6.7°C 38% 9.2 mph N14.8 kmh N 15.0 mph24.1 kmh 30.13 in1020.3 mb - 0.00 in0.0 mm 0.00 in0.0 mm
10:00 AM 71.3°F21.8°C 44.4°F6.9°C 38% 8.1 mph NNE13.0 kmh NNE 11.5 mph18.5 kmh 30.13 in1020.3 mb - 0.00 in0.0 mm 0.00 in0.0 mm
10:10 AM 71.8°F22.1°C 44.1°F6.7°C 37% 6.9 mph N11.1 kmh N 11.5 mph18.5 kmh 30.13 in1020.3 mb - 0.00 in0.0 mm 0.00 in0.0 mm
10:15 AM 72.1°F22.3°C 43.7°F6.5°C 36% 5.8 mph N9.3 kmh N 11.5 mph18.5 kmh 30.13 in1020.3 mb - 0.00 in0.0 mm 0.00 in0.0 mm
10:20 AM 72.5°F22.5°C 44.0°F6.7°C 36% 6.9 mph N11.1 kmh N 12.7 mph20.4 kmh 30.13 in1020.3 mb - 0.00 in0.0 mm 0.00 in0.0 mm
10:25 AM 72.9°F22.7°C 43.6°F6.4°C 35% 5.8 mph N9.3 kmh N 9.2 mph14.8 kmh 30.13 in1020.3 mb - 0.00 in0.0 mm 0.00 in0.0 mm
10:30 AM 73.0°F22.8°C 43.7°F6.5°C 35% 5.8 mph N9.3 kmh N 11.5 mph18.5 kmh 30.12 in1020.0 mb - 0.00 in0.0 mm 0.00 in0.0 mm
10:35 AM 73.5°F23.1°C 43.4°F6.3°C 34% 6.9 mph N11.1 kmh N 12.7 mph20.4 kmh 30.12 in1020.0 mb - 0.00 in0.0 mm 0.00 in0.0 mm
10:40 AM 73.7°F23.2°C 43.6°F6.4°C 34% 8.1 mph N13.0 kmh N 13.8 mph22.2 kmh 30.12 in1020.0 mb - 0.00 in0.0 mm 0.00 in0.0 mm
10:45 AM 73.9°F23.3°C 43.8°F6.6°C 34% 9.2 mph N14.8 kmh N 11.5 mph18.5 kmh 30.11 in1019.6 mb - 0.00 in0.0 mm 0.00 in0.0 mm
10:50 AM 74.3°F23.5°C 43.4°F6.3°C 33% 5.8 mph N9.3 kmh N 11.5 mph18.5 kmh 30.11 in1019.6 mb - 0.00 in0.0 mm 0.00 in0.0 mm
10:55 AM 74.6°F23.7°C 42.8°F6.0°C 32% 6.9 mph N11.1 kmh N 11.5 mph18.5 kmh 30.11 in1019.6 mb - 0.00 in0.0 mm 0.00 in0.0 mm
11:00 AM 74.7°F23.7°C 42.9°F6.1°C 32% 6.9 mph N11.1 kmh N 11.5 mph18.5 kmh 30.11 in1019.6 mb - 0.00 in0.0 mm 0.00 in0.0 mm
11:10 AM 75.6°F24.2°C 42.8°F6.0°C 31% 4.6 mph N7.4 kmh N 8.1 mph13.0 kmh 30.10 in1019.3 mb - 0.00 in0.0 mm 0.00 in0.0 mm
11:15 AM 76.0°F24.4°C 43.1°F6.2°C 31% 5.8 mph N9.3 kmh N 10.4 mph16.7 kmh 30.10 in1019.3 mb - 0.00 in0.0 mm 0.00 in0.0 mm
11:20 AM 76.2°F24.6°C 42.4°F5.8°C 30% 5.8 mph N9.3 kmh N 10.4 mph16.7 kmh 30.10 in1019.3 mb - 0.00 in0.0 mm 0.00 in0.0 mm
11:25 AM 76.3°F24.6°C 42.6°F5.9°C 30% 4.6 mph N7.4 kmh N 10.4 mph16.7 kmh 30.10 in1019.3 mb - 0.00 in0.0 mm 0.00 in0.0 mm
11:30 AM 76.7°F24.8°C 42.0°F5.6°C 29% 4.6 mph N7.4 kmh N 6.9 mph11.1 kmh 30.09 in1019.0 mb - 0.00 in0.0 mm 0.00 in0.0 mm
11:35 AM 77.0°F25.0°C 42.3°F5.7°C 29% 5.8 mph N9.3 kmh N 10.4 mph16.7 kmh 30.09 in1019.0 mb - 0.00 in0.0 mm 0.00 in0.0 mm
11:40 AM 77.2°F25.1°C 41.6°F5.3°C 28% 4.6 mph NNE7.4 kmh NNE 6.9 mph11.1 kmh 30.09 in1019.0 mb - 0.00 in0.0 mm 0.00 in0.0 mm
11:45 AM 77.6°F25.3°C 43.7°F6.5°C 30% 3.5 mph NNW5.6 kmh NNW 4.6 mph7.4 kmh 30.09 in1019.0 mb - 0.00 in0.0 mm 0.00 in0.0 mm
11:50 AM 78.0°F25.6°C 43.2°F6.2°C 29% 3.5 mph N5.6 kmh N 6.9 mph11.1 kmh 30.09 in1019.0 mb - 0.00 in0.0 mm 0.00 in0.0 mm
11:55 AM 77.9°F25.5°C 42.2°F5.7°C 28% 4.6 mph NNW7.4 kmh NNW 3.5 mph5.6 kmh 30.09 in1019.0 mb - 0.00 in0.0 mm 0.00 in0.0 mm
12:00 PM 78.3°F25.7°C 41.6°F5.3°C 27% 4.6 mph N7.4 kmh N 10.4 mph16.7 kmh 30.09 in1019.0 mb - 0.00 in0.0 mm 0.00 in0.0 mm
12:10 PM 78.8°F26.0°C 42.0°F5.6°C 27% 1.2 mph ESE1.9 kmh ESE 3.5 mph5.6 kmh 30.08 in1018.6 mb - 0.00 in0.0 mm 0.00 in0.0 mm
12:15 PM 79.5°F26.4°C 41.6°F5.3°C 26% 1.2 mph N1.9 kmh N 3.5 mph5.6 kmh 30.08 in1018.6 mb - 0.00 in0.0 mm 0.00 in0.0 mm
12:20 PM 79.7°F26.5°C 41.8°F5.4°C 26% 1.2 mph S1.9 kmh S 1.2 mph1.9 kmh 30.07 in1018.3 mb - 0.00 in0.0 mm 0.00 in0.0 mm
12:25 PM 80.6°F27.0°C 40.5°F4.7°C 24% 1.2 mph NE1.9 kmh NE 2.3 mph3.7 kmh 30.07 in1018.3 mb - 0.00 in0.0 mm 0.00 in0.0 mm
12:30 PM 81.1°F27.3°C 40.9°F4.9°C 24% Calm Calm 2.3 mph3.7 kmh 30.07 in1018.3 mb - 0.00 in0.0 mm 0.00 in0.0 mm
12:35 PM 81.8°F27.7°C 41.4°F5.2°C 24% 1.2 mph SE1.9 kmh SE 2.3 mph3.7 kmh 30.07 in1018.3 mb - 0.00 in0.0 mm 0.00 in0.0 mm
12:40 PM 82.3°F27.9°C 41.9°F5.5°C 24% 1.2 mph SE1.9 kmh SE 2.3 mph3.7 kmh 30.07 in1018.3 mb - 0.00 in0.0 mm 0.00 in0.0 mm
12:45 PM 82.7°F28.2°C 42.2°F5.7°C 24% Calm Calm 3.5 mph5.6 kmh 30.06 in1017.9 mb - 0.00 in0.0 mm 0.00 in0.0 mm
12:50 PM 82.7°F28.2°C 41.1°F5.1°C 23% 2.3 mph NNE3.7 kmh NNE 3.5 mph5.6 kmh 30.06 in1017.9 mb - 0.00 in0.0 mm 0.00 in0.0 mm
12:55 PM 82.5°F28.1°C 42.1°F5.6°C 24% 1.2 mph N1.9 kmh N 2.3 mph3.7 kmh 30.06 in1017.9 mb - 0.00 in0.0 mm 0.00 in0.0 mm
01:00 PM 82.4°F28.0°C 40.9°F4.9°C 23% 1.2 mph NE1.9 kmh NE 3.5 mph5.6 kmh 30.05 in1017.6 mb - 0.00 in0.0 mm 0.00 in0.0 mm
01:10 PM 82.0°F27.8°C 41.6°F5.3°C 24% 1.2 mph SE1.9 kmh SE 1.2 mph1.9 kmh 30.05 in1017.6 mb - 0.00 in0.0 mm 0.00 in0.0 mm
01:15 PM 82.1°F27.8°C 40.6°F4.8°C 23% 1.2 mph NNW1.9 kmh NNW 5.8 mph9.3 kmh 30.05 in1017.6 mb - 0.00 in0.0 mm 0.00 in0.0 mm
01:20 PM 81.8°F27.7°C 40.4°F4.7°C 23% 3.5 mph N5.6 kmh N 6.9 mph11.1 kmh 30.04 in1017.3 mb - 0.00 in0.0 mm 0.00 in0.0 mm
01:25 PM 81.4°F27.4°C 40.0°F4.4°C 23% 4.6 mph NNE7.4 kmh NNE 8.1 mph13.0 kmh 30.04 in1017.3 mb - 0.00 in0.0 mm 0.00 in0.0 mm
01:30 PM 81.6°F27.6°C 40.2°F4.6°C 23% 3.5 mph N5.6 kmh N 4.6 mph7.4 kmh 30.04 in1017.3 mb - 0.00 in0.0 mm 0.00 in0.0 mm
01:35 PM 81.5°F27.5°C 41.2°F5.1°C 24% 2.3 mph E3.7 kmh E 2.3 mph3.7 kmh 30.04 in1017.3 mb - 0.00 in0.0 mm 0.00 in0.0 mm
01:40 PM 82.0°F27.8°C 40.6°F4.8°C 23% 1.2 mph N1.9 kmh N 3.5 mph5.6 kmh 30.04 in1017.3 mb - 0.00 in0.0 mm 0.00 in0.0 mm
01:45 PM 81.6°F27.6°C 40.2°F4.6°C 23% 2.3 mph N3.7 kmh N 4.6 mph7.4 kmh 30.04 in1017.3 mb - 0.00 in0.0 mm 0.00 in0.0 mm
01:50 PM 81.4°F27.4°C 41.2°F5.1°C 24% 1.2 mph NE1.9 kmh NE 3.5 mph5.6 kmh 30.04 in1017.3 mb - 0.00 in0.0 mm 0.00 in0.0 mm
01:55 PM 81.9°F27.7°C 40.4°F4.7°C 23% 1.2 mph SE1.9 kmh SE 2.3 mph3.7 kmh 30.03 in1016.9 mb - 0.00 in0.0 mm 0.00 in0.0 mm
02:00 PM 82.4°F28.0°C 40.9°F4.9°C 23% 2.3 mph NE3.7 kmh NE 3.5 mph5.6 kmh 30.03 in1016.9 mb - 0.00 in0.0 mm 0.00 in0.0 mm
02:10 PM 82.0°F27.8°C 40.5°F4.7°C 23% Calm Calm 1.2 mph1.9 kmh 30.03 in1016.9 mb - 0.00 in0.0 mm 0.00 in0.0 mm
02:15 PM 82.2°F27.9°C 40.7°F4.8°C 23% 1.2 mph NNE1.9 kmh NNE 4.6 mph7.4 kmh 30.03 in1016.9 mb - 0.00 in0.0 mm 0.00 in0.0 mm
02:20 PM 82.0°F27.8°C 40.6°F4.8°C 23% 2.3 mph NNW3.7 kmh NNW 3.5 mph5.6 kmh 30.02 in1016.6 mb - 0.00 in0.0 mm 0.00 in0.0 mm
02:25 PM 82.6°F28.1°C 41.0°F5.0°C 23% 2.3 mph NE3.7 kmh NE 6.9 mph11.1 kmh 30.02 in1016.6 mb - 0.00 in0.0 mm 0.00 in0.0 mm
02:30 PM 83.7°F28.7°C 39.6°F4.2°C 21% 2.3 mph SE3.7 kmh SE 6.9 mph11.1 kmh 30.02 in1016.6 mb - 0.00 in0.0 mm 0.00 in0.0 mm
02:35 PM 84.2°F29.0°C 41.2°F5.1°C 22% 3.5 mph SE5.6 kmh SE 4.6 mph7.4 kmh 30.02 in1016.6 mb - 0.00 in0.0 mm 0.00 in0.0 mm
02:40 PM 84.7°F29.3°C 39.2°F4.0°C 20% 1.2 mph NE1.9 kmh NE 3.5 mph5.6 kmh 30.02 in1016.6 mb - 0.00 in0.0 mm 0.00 in0.0 mm
02:45 PM 84.6°F29.2°C 40.3°F4.6°C 21% 1.2 mph ENE1.9 kmh ENE 1.2 mph1.9 kmh 30.02 in1016.6 mb - 0.00 in0.0 mm 0.00 in0.0 mm
02:50 PM 84.5°F29.2°C 40.3°F4.6°C 21% 1.2 mph ESE1.9 kmh ESE 2.3 mph3.7 kmh 30.02 in1016.6 mb - 0.00 in0.0 mm 0.00 in0.0 mm
02:55 PM 85.0°F29.4°C 40.7°F4.8°C 21% 2.3 mph NE3.7 kmh NE 4.6 mph7.4 kmh 30.02 in1016.6 mb - 0.00 in0.0 mm 0.00 in0.0 mm
03:00 PM 85.1°F29.5°C 39.5°F4.2°C 20% 1.2 mph ENE1.9 kmh ENE 3.5 mph5.6 kmh 30.02 in1016.6 mb - 0.00 in0.0 mm 0.00 in0.0 mm
03:10 PM 84.9°F29.4°C 40.6°F4.8°C 21% 1.2 mph SW1.9 kmh SW 3.5 mph5.6 kmh 30.01 in1016.3 mb - 0.00 in0.0 mm 0.00 in0.0 mm
03:15 PM 85.0°F29.4°C 41.9°F5.5°C 22% 1.2 mph SE1.9 kmh SE 3.5 mph5.6 kmh 30.01 in1016.3 mb - 0.00 in0.0 mm 0.00 in0.0 mm
03:20 PM 85.4°F29.7°C 41.0°F5.0°C 21% 2.3 mph NNE3.7 kmh NNE 5.8 mph9.3 kmh 30.01 in1016.3 mb - 0.00 in0.0 mm 0.00 in0.0 mm
03:25 PM 84.4°F29.1°C 40.1°F4.5°C 21% 2.3 mph NE3.7 kmh NE 3.5 mph5.6 kmh 30.02 in1016.6 mb - 0.00 in0.0 mm 0.00 in0.0 mm
03:30 PM 84.2°F29.0°C 41.2°F5.1°C 22% 1.2 mph E1.9 kmh E 2.3 mph3.7 kmh 30.02 in1016.6 mb - 0.00 in0.0 mm 0.00 in0.0 mm
03:35 PM 85.1°F29.5°C 40.7°F4.8°C 21% 1.2 mph SE1.9 kmh SE 3.5 mph5.6 kmh 30.01 in1016.3 mb - 0.00 in0.0 mm 0.00 in0.0 mm
03:40 PM 85.8°F29.9°C 41.3°F5.2°C 21% 1.2 mph SE1.9 kmh SE 3.5 mph5.6 kmh 30.01 in1016.3 mb - 0.00 in0.0 mm 0.00 in0.0 mm
03:45 PM 86.1°F30.1°C 41.6°F5.3°C 21% 2.3 mph SE3.7 kmh SE 3.5 mph5.6 kmh 30.01 in1016.3 mb - 0.00 in0.0 mm 0.00 in0.0 mm
03:50 PM 86.3°F30.2°C 41.8°F5.4°C 21% 1.2 mph E1.9 kmh E 2.3 mph3.7 kmh 30.01 in1016.3 mb - 0.00 in0.0 mm 0.00 in0.0 mm
03:55 PM 85.6°F29.8°C 41.2°F5.1°C 21% 1.2 mph SE1.9 kmh SE 3.5 mph5.6 kmh 30.01 in1016.3 mb - 0.00 in0.0 mm 0.00 in0.0 mm
04:00 PM 85.2°F29.6°C 40.9°F4.9°C 21% 2.3 mph SE3.7 kmh SE 3.5 mph5.6 kmh 30.01 in1016.3 mb - 0.00 in0.0 mm 0.00 in0.0 mm
04:10 PM 84.3°F29.1°C 41.3°F5.2°C 22% 1.2 mph NNW1.9 kmh NNW 3.5 mph5.6 kmh 30.01 in1016.3 mb - 0.00 in0.0 mm 0.00 in0.0 mm
04:15 PM 83.8°F28.8°C 42.1°F5.6°C 23% Calm Calm 1.2 mph1.9 kmh 30.01 in1016.3 mb - 0.00 in0.0 mm 0.00 in0.0 mm
04:20 PM 83.4°F28.6°C 41.7°F5.4°C 23% 1.2 mph SE1.9 kmh SE 2.3 mph3.7 kmh 30.00 in1015.9 mb - 0.00 in0.0 mm 0.00 in0.0 mm
04:25 PM 83.5°F28.6°C 41.8°F5.4°C 23% 1.2 mph ESE1.9 kmh ESE 2.3 mph3.7 kmh 30.00 in1015.9 mb - 0.00 in0.0 mm 0.00 in0.0 mm
04:30 PM 83.0°F28.3°C 42.5°F5.8°C 24% 1.2 mph NNE1.9 kmh NNE 3.5 mph5.6 kmh 30.00 in1015.9 mb - 0.00 in0.0 mm 0.00 in0.0 mm
04:35 PM 82.7°F28.2°C 42.2°F5.7°C 24% 1.2 mph SE1.9 kmh SE 2.3 mph3.7 kmh 30.00 in1015.9 mb - 0.00 in0.0 mm 0.00 in0.0 mm
04:40 PM 82.9°F28.3°C 43.5°F6.4°C 25% 1.2 mph S1.9 kmh S 2.3 mph3.7 kmh 30.00 in1015.9 mb - 0.00 in0.0 mm 0.00 in0.0 mm
04:45 PM 83.0°F28.3°C 42.5°F5.8°C 24% 2.3 mph SE3.7 kmh SE 3.5 mph5.6 kmh 30.00 in1015.9 mb - 0.00 in0.0 mm 0.00 in0.0 mm
04:50 PM 83.0°F28.3°C 43.5°F6.4°C 25% Calm Calm 2.3 mph3.7 kmh 30.00 in1015.9 mb - 0.00 in0.0 mm 0.00 in0.0 mm
04:55 PM 82.8°F28.2°C 43.4°F6.3°C 25% 2.3 mph SE3.7 kmh SE 4.6 mph7.4 kmh 30.00 in1015.9 mb - 0.00 in0.0 mm 0.00 in0.0 mm
05:00 PM 82.4°F28.0°C 44.1°F6.7°C 26% 1.2 mph SE1.9 kmh SE 2.3 mph3.7 kmh 30.00 in1015.9 mb - 0.00 in0.0 mm 0.00 in0.0 mm
05:10 PM 82.0°F27.8°C 43.7°F6.5°C 26% 1.2 mph SE1.9 kmh SE 2.3 mph3.7 kmh 30.00 in1015.9 mb - 0.00 in0.0 mm 0.00 in0.0 mm
05:15 PM 81.7°F27.6°C 43.5°F6.4°C 26% 1.2 mph SSW1.9 kmh SSW 3.5 mph5.6 kmh 30.01 in1016.3 mb - 0.00 in0.0 mm 0.00 in0.0 mm
05:20 PM 81.3°F27.4°C 44.1°F6.7°C 27% 1.2 mph SSW1.9 kmh SSW 2.3 mph3.7 kmh 30.00 in1015.9 mb - 0.00 in0.0 mm 0.00 in0.0 mm
05:25 PM 80.9°F27.2°C 43.8°F6.6°C 27% 1.2 mph SW1.9 kmh SW 2.3 mph3.7 kmh 30.01 in1016.3 mb - 0.00 in0.0 mm 0.00 in0.0 mm
05:30 PM 80.5°F26.9°C 44.4°F6.9°C 28% 1.2 mph SW1.9 kmh SW 2.3 mph3.7 kmh 30.01 in1016.3 mb - 0.00 in0.0 mm 0.00 in0.0 mm
05:35 PM 80.2°F26.8°C 44.1°F6.7°C 28% Calm Calm 1.2 mph1.9 kmh 30.01 in1016.3 mb - 0.00 in0.0 mm 0.00 in0.0 mm
05:40 PM 79.9°F26.6°C 44.8°F7.1°C 29% Calm Calm 1.2 mph1.9 kmh 30.01 in1016.3 mb - 0.00 in0.0 mm 0.00 in0.0 mm
05:45 PM 79.6°F26.4°C 44.6°F7.0°C 29% Calm Calm 1.2 mph1.9 kmh 30.01 in1016.3 mb - 0.00 in0.0 mm 0.00 in0.0 mm
05:50 PM 79.3°F26.3°C 44.3°F6.8°C 29% Calm Calm 1.2 mph1.9 kmh 30.01 in1016.3 mb - 0.00 in0.0 mm 0.00 in0.0 mm
05:55 PM 78.9°F26.1°C 44.8°F7.1°C 30% Calm Calm -- 30.01 in1016.3 mb - 0.00 in0.0 mm 0.00 in0.0 mm
06:00 PM 78.5°F25.8°C 45.3°F7.4°C 31% Calm Calm 1.2 mph1.9 kmh 30.02 in1016.6 mb - 0.00 in0.0 mm 0.00 in0.0 mm
06:10 PM 77.2°F25.1°C 45.1°F7.3°C 32% Calm Calm -- 30.02 in1016.6 mb - 0.00 in0.0 mm 0.00 in0.0 mm
06:15 PM 76.5°F24.7°C 46.1°F7.8°C 34% Calm Calm -- 30.02 in1016.6 mb - 0.00 in0.0 mm 0.00 in0.0 mm
06:20 PM 76.3°F24.6°C 45.8°F7.7°C 34% Calm Calm -- 30.02 in1016.6 mb - 0.00 in0.0 mm 0.00 in0.0 mm
06:25 PM 75.9°F24.4°C 47.7°F8.7°C 37% 1.2 mph 1.9 kmh 2.3 mph3.7 kmh 30.02 in1016.6 mb - 0.00 in0.0 mm 0.00 in0.0 mm
06:30 PM 75.4°F24.1°C 47.3°F8.5°C 37% 1.2 mph N1.9 kmh N 3.5 mph5.6 kmh 30.02 in1016.6 mb - 0.00 in0.0 mm 0.00 in0.0 mm
06:35 PM 74.9°F23.8°C 48.2°F9.0°C 39% 1.2 mph N1.9 kmh N 2.3 mph3.7 kmh 30.02 in1016.6 mb - 0.00 in0.0 mm 0.00 in0.0 mm
06:40 PM 74.2°F23.4°C 47.7°F8.7°C 39% 1.2 mph N1.9 kmh N 2.3 mph3.7 kmh 30.02 in1016.6 mb - 0.00 in0.0 mm 0.00 in0.0 mm
06:45 PM 73.9°F23.3°C 47.4°F8.6°C 39% 1.2 mph N1.9 kmh N 3.5 mph5.6 kmh 30.02 in1016.6 mb - 0.00 in0.0 mm 0.00 in0.0 mm
06:50 PM 73.9°F23.3°C 45.9°F7.7°C 37% 3.5 mph N5.6 kmh N 4.6 mph7.4 kmh 30.03 in1016.9 mb - 0.00 in0.0 mm 0.00 in0.0 mm
06:55 PM 73.6°F23.1°C 45.0°F7.2°C 36% 3.5 mph N5.6 kmh N 3.5 mph5.6 kmh 30.03 in1016.9 mb - 0.00 in0.0 mm 0.00 in0.0 mm
07:00 PM 73.6°F23.1°C 44.2°F6.8°C 35% 3.5 mph NNE5.6 kmh NNE 6.9 mph11.1 kmh 30.03 in1016.9 mb - 0.00 in0.0 mm 0.00 in0.0 mm
07:10 PM 73.8°F23.2°C 43.7°F6.5°C 34% 4.6 mph NNE7.4 kmh NNE 10.4 mph16.7 kmh 30.03 in1016.9 mb - 0.00 in0.0 mm 0.00 in0.0 mm
07:15 PM 74.0°F23.3°C 43.9°F6.6°C 34% 4.6 mph NNE7.4 kmh NNE 8.1 mph13.0 kmh 30.03 in1016.9 mb - 0.00 in0.0 mm 0.00 in0.0 mm
07:20 PM 73.8°F23.2°C 43.7°F6.5°C 34% 4.6 mph NNE7.4 kmh NNE 4.6 mph7.4 kmh 30.03 in1016.9 mb - 0.00 in0.0 mm 0.00 in0.0 mm
07:25 PM 73.6°F23.1°C 44.3°F6.8°C 35% 3.5 mph N5.6 kmh N 5.8 mph9.3 kmh 30.03 in1016.9 mb - 0.00 in0.0 mm 0.00 in0.0 mm
07:30 PM 73.3°F22.9°C 44.0°F6.7°C 35% 4.6 mph N7.4 kmh N 6.9 mph11.1 kmh 30.03 in1016.9 mb - 0.00 in0.0 mm 0.00 in0.0 mm
07:35 PM 73.1°F22.8°C 43.8°F6.6°C 35% 4.6 mph N7.4 kmh N 6.9 mph11.1 kmh 30.03 in1016.9 mb - 0.00 in0.0 mm 0.00 in0.0 mm
07:40 PM 72.9°F22.7°C 44.4°F6.9°C 36% 5.8 mph N9.3 kmh N 6.9 mph11.1 kmh 30.03 in1016.9 mb - 0.00 in0.0 mm 0.00 in0.0 mm
07:45 PM 72.7°F22.6°C 44.2°F6.8°C 36% 4.6 mph NNE7.4 kmh NNE 8.1 mph13.0 kmh 30.03 in1016.9 mb - 0.00 in0.0 mm 0.00 in0.0 mm
07:50 PM 72.7°F22.6°C 44.2°F6.8°C 36% 4.6 mph N7.4 kmh N 9.2 mph14.8 kmh 30.03 in1016.9 mb - 0.00 in0.0 mm 0.00 in0.0 mm
07:55 PM 72.6°F22.6°C 44.1°F6.7°C 36% 5.8 mph N9.3 kmh N 8.1 mph13.0 kmh 30.03 in1016.9 mb - 0.00 in0.0 mm 0.00 in0.0 mm
08:00 PM 72.6°F22.6°C 44.1°F6.7°C 36% 5.8 mph N9.3 kmh N 6.9 mph11.1 kmh 30.04 in1017.3 mb - 0.00 in0.0 mm 0.00 in0.0 mm